createdAt,value
2022-11-15T00:00:45.256Z,76.01
2022-11-15T00:03:30.862Z,75.96
2022-11-15T00:06:16.340Z,75.47
2022-11-15T00:09:02.157Z,75.31
2022-11-15T00:11:47.388Z,75.70
2022-11-15T00:14:32.528Z,75.61
2022-11-15T00:17:17.847Z,75.62
2022-11-15T00:20:03.804Z,75.56
2022-11-15T00:22:49.236Z,75.29
2022-11-15T00:25:34.977Z,75.67
2022-11-15T00:28:19.938Z,75.42
2022-11-15T00:31:07.287Z,75.34
2022-11-15T00:33:52.492Z,75.22
2022-11-15T00:36:38.010Z,75.02
2022-11-15T00:39:23.444Z,75.28
2022-11-15T00:42:09.011Z,75.17
2022-11-15T00:44:54.253Z,75.43
2022-11-15T00:47:39.576Z,75.64
2022-11-15T00:50:24.793Z,75.88
2022-11-15T00:53:10.357Z,75.48
2022-11-15T00:55:55.447Z,76.07
2022-11-15T00:58:40.725Z,75.48
2022-11-15T01:01:25.967Z,75.10
2022-11-15T01:04:11.438Z,75.05
2022-11-15T01:06:56.807Z,74.75
2022-11-15T01:09:42.003Z,75.05
2022-11-15T01:12:27.252Z,74.72
2022-11-15T01:15:12.923Z,75.04
2022-11-15T01:17:57.967Z,74.61
2022-11-15T01:20:43.877Z,74.81
2022-11-15T01:23:29.266Z,74.63
2022-11-15T01:26:16.407Z,74.54
2022-11-15T01:29:01.627Z,74.68
2022-11-15T01:31:46.913Z,74.31
2022-11-15T01:34:32.294Z,74.60
2022-11-15T01:37:17.660Z,74.67
2022-11-15T01:40:02.964Z,74.60
2022-11-15T01:42:48.043Z,74.99
2022-11-15T01:45:33.234Z,75.10
2022-11-15T01:48:18.546Z,75.20
2022-11-15T01:51:12.520Z,75.20
2022-11-15T01:54:04.381Z,75.62
2022-11-15T01:57:11.589Z,75.43
2022-11-15T01:59:58.361Z,75.48
2022-11-15T02:02:43.807Z,75.20
2022-11-15T02:05:31.148Z,74.68
2022-11-15T02:08:21.064Z,74.45
2022-11-15T02:11:10.088Z,74.46
2022-11-15T02:13:58.186Z,74.75
2022-11-15T02:17:04.810Z,74.84
2022-11-15T02:20:31.418Z,74.96
2022-11-15T02:23:22.540Z,74.55
2022-11-15T02:26:42.332Z,74.39
2022-11-15T02:30:01.289Z,74.44
2022-11-15T02:33:01.995Z,74.80
2022-11-15T02:36:00.475Z,74.84
2022-11-15T02:39:00.950Z,74.63
2022-11-15T02:42:00.836Z,75.11
2022-11-15T02:44:47.889Z,75.05
2022-11-15T02:47:40.326Z,74.98
2022-11-15T02:50:29.223Z,75.23
2022-11-15T02:53:15.678Z,75.24
2022-11-15T02:56:01.171Z,75.24
2022-11-15T02:59:08.157Z,75.61
2022-11-15T03:02:11.789Z,75.45
2022-11-15T03:05:03.722Z,75.62
2022-11-15T03:08:03.597Z,75.86
2022-11-15T03:11:09.255Z,75.52
2022-11-15T03:13:54.461Z,75.19
2022-11-15T03:16:51.446Z,75.04
2022-11-15T03:19:49.028Z,75.04
2022-11-15T03:22:38.608Z,75.11
2022-11-15T03:25:26.690Z,75.13
2022-11-15T03:28:17.479Z,74.82
2022-11-15T03:31:24.969Z,75.08
2022-11-15T03:34:15.191Z,75.13
2022-11-15T03:37:00.613Z,74.94
2022-11-15T03:39:45.670Z,75.12
2022-11-15T03:42:57.397Z,75.28
2022-11-15T03:45:51.884Z,75.02
2022-11-15T03:48:44.454Z,74.82
2022-11-15T03:51:30.256Z,75.28
2022-11-15T03:54:15.636Z,75.26
2022-11-15T03:57:00.803Z,75.27
2022-11-15T03:59:46.267Z,74.88
2022-11-15T04:02:31.588Z,74.92
2022-11-15T04:05:16.922Z,74.69
2022-11-15T04:08:02.404Z,74.91
2022-11-15T04:10:49.832Z,74.91
2022-11-15T04:13:35.100Z,74.99
2022-11-15T04:16:20.228Z,75.65
2022-11-15T04:19:24.205Z,75.52
2022-11-15T04:22:27.880Z,75.79
2022-11-15T04:25:13.154Z,76.34
2022-11-15T04:27:58.318Z,76.68
2022-11-15T04:30:43.694Z,76.90
2022-11-15T04:33:28.863Z,76.72
2022-11-15T04:36:33.046Z,76.79
2022-11-15T04:39:18.284Z,76.63
2022-11-15T04:42:03.549Z,76.85
2022-11-15T04:44:48.876Z,76.88
2022-11-15T04:47:33.998Z,76.72
2022-11-15T04:50:19.440Z,76.65
2022-11-15T04:53:05.076Z,76.68
2022-11-15T04:55:50.284Z,77.03
2022-11-15T04:58:36.261Z,76.74
2022-11-15T05:01:21.277Z,76.68
2022-11-15T05:04:21.614Z,77.12
2022-11-15T05:07:06.836Z,76.53
2022-11-15T05:09:52.038Z,76.56
2022-11-15T05:12:37.666Z,76.31
2022-11-15T05:15:23.109Z,76.77
2022-11-15T05:18:08.384Z,76.97
2022-11-15T05:20:54.178Z,76.69
2022-11-15T05:23:40.032Z,77.19
2022-11-15T05:26:25.852Z,77.41
2022-11-15T05:29:16.893Z,77.61
2022-11-15T05:32:06.315Z,77.68
2022-11-15T05:34:51.841Z,77.51
2022-11-15T05:37:37.128Z,77.08
2022-11-15T05:40:22.267Z,77.28
2022-11-15T05:43:07.947Z,76.92
2022-11-15T05:45:53.235Z,77.15
2022-11-15T05:48:42.587Z,76.95
2022-11-15T05:51:30.135Z,76.93
2022-11-15T05:54:17.126Z,77.23
2022-11-15T05:57:02.598Z,77.47
2022-11-15T05:59:48.263Z,77.12
2022-11-15T06:02:33.236Z,77.17
2022-11-15T06:05:18.532Z,76.86
2022-11-15T06:08:03.815Z,77.33
2022-11-15T06:10:49.182Z,77.18
2022-11-15T06:13:35.055Z,76.63
2022-11-15T06:16:26.090Z,77.24
2022-11-15T06:19:11.462Z,77.27
2022-11-15T06:21:56.794Z,77.37
2022-11-15T06:24:42.091Z,77.52
2022-11-15T06:27:27.456Z,77.86
2022-11-15T06:30:12.693Z,78.08
2022-11-15T06:33:03.173Z,77.68
2022-11-15T06:35:53.128Z,77.65
2022-11-15T06:38:38.593Z,77.83
2022-11-15T06:41:23.880Z,77.59
2022-11-15T06:44:09.645Z,77.97
2022-11-15T06:46:55.168Z,77.35
2022-11-15T06:49:40.738Z,77.45
2022-11-15T06:52:28.660Z,77.03
2022-11-15T06:55:14.078Z,77.45
2022-11-15T06:57:59.466Z,77.50
2022-11-15T07:00:44.989Z,77.38
2022-11-15T07:03:31.073Z,77.61
2022-11-15T07:06:16.625Z,77.40
2022-11-15T07:09:16.056Z,77.97
2022-11-15T07:12:07.716Z,77.44
2022-11-15T07:14:53.330Z,77.66
2022-11-15T07:17:38.580Z,77.02
2022-11-15T07:20:23.829Z,77.85
2022-11-15T07:23:09.198Z,77.47
2022-11-15T07:25:54.724Z,77.54
2022-11-15T07:28:40.023Z,77.64
2022-11-15T07:31:26.443Z,77.56
2022-11-15T07:34:11.559Z,77.58
2022-11-15T07:36:59.022Z,77.04
2022-11-15T07:39:44.624Z,77.17
2022-11-15T07:42:51.404Z,77.27
2022-11-15T07:45:44.817Z,76.69
2022-11-15T07:48:42.725Z,76.36
2022-11-15T07:51:29.399Z,76.40
2022-11-15T07:54:14.673Z,76.08
2022-11-15T07:57:05.488Z,76.29
2022-11-15T07:59:52.598Z,76.50
2022-11-15T08:02:38.537Z,76.88
2022-11-15T08:05:23.741Z,76.95
2022-11-15T08:08:11.414Z,76.37
2022-11-15T08:10:59.656Z,76.61
2022-11-15T08:13:44.580Z,76.77
2022-11-15T08:16:30.004Z,76.70
2022-11-15T08:19:15.403Z,76.19
2022-11-15T08:22:00.760Z,75.91
2022-11-15T08:24:46.061Z,75.81
2022-11-15T08:27:31.206Z,75.74
2022-11-15T08:30:17.123Z,75.93
2022-11-15T08:33:02.428Z,76.04
2022-11-15T08:35:47.733Z,75.91
2022-11-15T08:38:33.597Z,75.81
2022-11-15T08:41:29.312Z,75.63
2022-11-15T08:44:14.136Z,75.75
2022-11-15T08:46:59.493Z,75.49
2022-11-15T08:49:44.827Z,75.64
2022-11-15T08:52:30.020Z,76.25
2022-11-15T08:55:17.516Z,75.85
2022-11-15T08:58:03.221Z,75.67
2022-11-15T09:00:48.465Z,74.98
2022-11-15T09:03:36.354Z,74.81
2022-11-15T09:06:21.585Z,75.03
2022-11-15T09:09:06.992Z,75.27
2022-11-15T09:11:52.228Z,75.21
2022-11-15T09:14:37.604Z,75.03
2022-11-15T09:20:28.415Z,75.08
2022-11-15T09:23:13.766Z,74.81
2022-11-15T09:26:01.407Z,75.09
2022-11-15T09:28:46.472Z,74.99
2022-11-15T09:31:31.899Z,74.44
2022-11-15T09:34:17.058Z,74.54
2022-11-15T09:37:02.228Z,74.83
2022-11-15T09:39:47.431Z,74.72
2022-11-15T09:42:54.335Z,74.61
2022-11-15T09:46:04.223Z,75.09
2022-11-15T09:49:04.289Z,74.99
2022-11-15T09:51:47.842Z,74.50
2022-11-15T09:54:52.327Z,74.27
2022-11-15T09:57:42.615Z,74.34
2022-11-15T10:03:09.005Z,74.93
2022-11-15T10:05:50.751Z,74.89
2022-11-15T10:08:32.957Z,75.13
2022-11-15T10:14:11.345Z,74.77
2022-11-15T10:17:02.487Z,74.99
2022-11-15T10:19:38.059Z,74.83
2022-11-15T10:22:23.522Z,74.29
2022-11-15T10:24:53.328Z,74.10
2022-11-15T10:27:21.261Z,73.92
2022-11-15T10:29:50.837Z,73.69
2022-11-15T10:32:22.178Z,73.69
2022-11-15T10:34:50.802Z,73.17
2022-11-15T10:37:30.333Z,73.23
2022-11-15T10:40:22.367Z,72.83
2022-11-15T10:43:07.246Z,72.07
2022-11-15T10:45:35.282Z,72.08
2022-11-15T10:48:13.928Z,72.28
2022-11-15T10:50:46.117Z,71.98
2022-11-15T10:53:44.670Z,72.37
2022-11-15T10:56:16.681Z,72.25
2022-11-15T10:58:46.658Z,71.67
2022-11-15T11:01:46.086Z,72.06
2022-11-15T11:04:12.800Z,71.57
2022-11-15T11:06:50.396Z,71.38
2022-11-15T11:09:23.704Z,71.66
2022-11-15T11:11:53.841Z,71.35
2022-11-15T11:14:34.521Z,71.94
2022-11-15T11:17:37.341Z,71.04
2022-11-15T11:20:22.033Z,70.95
2022-11-15T11:23:11.064Z,71.42
2022-11-15T11:26:14.471Z,70.94
2022-11-15T11:29:11.442Z,70.98
2022-11-15T11:32:01.092Z,70.44
2022-11-15T11:34:39.156Z,70.95
2022-11-15T11:37:38.927Z,71.06
2022-11-15T11:40:10.434Z,71.00
2022-11-15T11:42:44.481Z,71.34
2022-11-15T11:45:11.059Z,71.28
2022-11-15T11:47:45.631Z,71.06
2022-11-15T11:50:18.709Z,71.61
2022-11-15T11:53:13.466Z,71.47
2022-11-15T11:55:45.341Z,71.41
2022-11-15T11:58:57.866Z,71.85
2022-11-15T12:01:36.936Z,71.82
2022-11-15T12:04:12.861Z,71.60
2022-11-15T12:06:43.725Z,71.80
2022-11-15T12:09:28.663Z,71.64
2022-11-15T12:12:28.595Z,72.01
2022-11-15T12:15:10.733Z,71.93
2022-11-15T12:17:40.605Z,71.80
2022-11-15T12:20:20.573Z,71.31
2022-11-15T12:23:19.834Z,71.56
2022-11-15T12:25:55.398Z,71.21
2022-11-15T12:28:52.837Z,70.67
2022-11-15T12:31:44.868Z,70.98
2022-11-15T12:34:23.552Z,71.08
2022-11-15T12:36:51.763Z,71.24
2022-11-15T12:39:19.831Z,71.10
2022-11-15T12:41:55.533Z,71.53
2022-11-15T12:44:31.654Z,71.85
2022-11-15T12:46:58.325Z,71.95
2022-11-15T12:49:24.783Z,72.27
2022-11-15T12:51:52.925Z,72.22
2022-11-15T12:54:22.612Z,72.33
2022-11-15T12:57:04.495Z,72.65
2022-11-15T12:59:59.775Z,72.27
2022-11-15T13:02:34.069Z,72.37
2022-11-15T13:05:16.283Z,72.58
2022-11-15T13:07:43.033Z,72.06
2022-11-15T13:10:28.652Z,71.90
2022-11-15T13:12:57.153Z,71.69
2022-11-15T13:15:51.764Z,71.36
2022-11-15T13:18:29.583Z,71.41
2022-11-15T13:21:01.975Z,71.17
2022-11-15T13:23:29.472Z,71.63
2022-11-15T13:26:09.679Z,71.12
2022-11-15T13:28:42.358Z,70.98
2022-11-15T13:31:30.430Z,71.15
2022-11-15T13:34:49.971Z,70.85
2022-11-15T13:37:34.291Z,70.85
2022-11-15T13:40:37.637Z,70.49
2022-11-15T13:43:39.532Z,71.41
2022-11-15T13:46:18.517Z,71.52
2022-11-15T13:48:47.327Z,71.51
2022-11-15T13:51:29.949Z,71.08
2022-11-15T13:54:13.317Z,71.78
2022-11-15T13:56:52.878Z,70.66
2022-11-15T13:59:25.850Z,71.43
2022-11-15T14:02:02.329Z,71.51
2022-11-15T14:04:34.919Z,71.50
2022-11-15T14:07:03.846Z,71.42
2022-11-15T14:09:39.257Z,71.22
2022-11-15T14:12:30.388Z,71.51
2022-11-15T14:14:58.449Z,71.64
2022-11-15T14:17:30.772Z,72.20
2022-11-15T14:19:59.107Z,71.87
2022-11-15T14:22:29.147Z,71.71
2022-11-15T14:25:16.297Z,71.52
2022-11-15T14:27:45.350Z,71.89
2022-11-15T14:30:18.619Z,71.29
2022-11-15T14:32:50.874Z,69.93
2022-11-15T14:35:20.946Z,69.76
2022-11-15T14:37:47.993Z,69.83
2022-11-15T14:40:19.946Z,69.76
2022-11-15T14:42:48.262Z,70.16
2022-11-15T14:45:17.833Z,70.40
2022-11-15T14:47:45.000Z,70.29
2022-11-15T14:50:15.402Z,70.10
2022-11-15T14:52:43.185Z,69.80
2022-11-15T14:55:24.279Z,70.67
2022-11-15T14:57:51.594Z,70.66
2022-11-15T15:00:18.391Z,70.27
2022-11-15T15:02:50.032Z,70.48
2022-11-15T15:05:18.759Z,70.77
2022-11-15T15:07:46.249Z,69.90
2022-11-15T15:13:01.482Z,69.86
2022-11-15T15:15:36.109Z,70.21
2022-11-15T15:18:06.069Z,70.53
2022-11-15T15:20:33.571Z,70.49
2022-11-15T15:23:00.247Z,70.06
2022-11-15T15:25:36.140Z,70.33
2022-11-15T15:28:04.186Z,70.52
2022-11-15T15:30:42.496Z,70.09
2022-11-15T15:33:10.739Z,70.65
2022-11-15T15:35:40.509Z,70.86
2022-11-15T15:38:25.215Z,70.09
2022-11-15T15:40:52.005Z,70.68
2022-11-15T15:43:18.747Z,70.74
2022-11-15T15:45:51.106Z,70.51
2022-11-15T15:48:21.825Z,71.24
2022-11-15T15:50:51.318Z,70.96
2022-11-15T15:53:18.427Z,70.76
2022-11-15T15:55:51.819Z,71.05
2022-11-15T15:58:20.058Z,70.31
2022-11-15T16:00:52.055Z,69.86
2022-11-15T16:03:18.985Z,70.08
2022-11-15T16:05:46.262Z,69.83
2022-11-15T16:08:24.323Z,69.86
2022-11-15T16:10:51.438Z,69.87
2022-11-15T16:13:18.620Z,70.35
2022-11-15T16:15:47.415Z,70.48
2022-11-15T16:18:17.599Z,69.64
2022-11-15T16:20:46.975Z,70.55
2022-11-15T16:23:19.294Z,70.34
2022-11-15T16:25:56.553Z,69.82
2022-11-15T16:28:32.364Z,70.12
2022-11-15T16:31:13.540Z,70.27
2022-11-15T16:33:41.127Z,70.10
2022-11-15T16:36:19.904Z,70.33
2022-11-15T16:59:54.462Z,73.08
2022-11-15T17:02:21.020Z,72.59
2022-11-15T17:04:47.845Z,73.90
2022-11-15T17:07:14.554Z,73.98
2022-11-15T17:09:41.322Z,74.78
2022-11-15T17:12:08.892Z,75.92
2022-11-15T17:14:35.537Z,75.95
2022-11-15T17:17:02.164Z,75.27
2022-11-15T17:19:28.814Z,76.74
2022-11-15T17:21:55.416Z,77.34
2022-11-15T17:24:22.032Z,77.53
2022-11-15T17:26:48.591Z,79.30
2022-11-15T17:29:18.582Z,79.87
2022-11-15T17:31:45.214Z,80.01
2022-11-15T17:34:11.818Z,81.90
2022-11-15T17:36:38.455Z,82.19
2022-11-15T17:39:05.409Z,82.13
2022-11-15T17:41:32.109Z,82.40
2022-11-15T17:44:00.508Z,82.13
2022-11-15T17:46:28.481Z,82.46
2022-11-15T17:48:56.459Z,82.91
2022-11-15T17:51:24.297Z,83.51
2022-11-15T17:53:51.547Z,83.64
2022-11-15T17:56:20.912Z,83.85
2022-11-15T17:58:49.455Z,83.09
2022-11-15T18:01:18.928Z,83.35
2022-11-15T18:03:46.034Z,83.98
2022-11-15T18:06:14.404Z,83.91
2022-11-15T18:08:43.293Z,84.32
2022-11-15T18:11:42.067Z,84.17
2022-11-15T18:14:14.017Z,83.82
2022-11-15T18:16:41.314Z,85.01
2022-11-15T18:19:12.904Z,84.47
2022-11-15T18:21:59.197Z,85.63
2022-11-15T18:24:31.763Z,85.83
2022-11-15T18:27:00.262Z,86.32
2022-11-15T18:29:27.720Z,86.31
2022-11-15T18:31:58.790Z,86.30
2022-11-15T18:34:32.654Z,85.41
2022-11-15T18:37:00.618Z,86.15
2022-11-15T18:39:27.501Z,85.84
2022-11-15T18:41:54.497Z,85.84
2022-11-15T18:44:21.409Z,85.80
2022-11-15T18:46:48.065Z,85.71
2022-11-15T18:49:17.180Z,85.90
2022-11-15T18:51:45.450Z,86.15
2022-11-15T18:54:18.185Z,85.21
2022-11-15T18:56:46.859Z,86.43
2022-11-15T18:59:24.781Z,86.32
2022-11-15T19:01:52.257Z,86.17
2022-11-15T19:04:20.792Z,86.07
2022-11-15T19:06:49.228Z,86.10
2022-11-15T19:09:17.686Z,85.88
2022-11-15T19:11:47.176Z,87.36
2022-11-15T19:14:16.057Z,87.15
2022-11-15T19:16:45.995Z,85.70
2022-11-15T19:19:18.350Z,86.57
2022-11-15T19:21:46.402Z,85.25
2022-11-15T19:24:14.303Z,85.65
2022-11-15T19:26:41.032Z,86.49
2022-11-15T19:29:10.756Z,86.53
2022-11-15T19:31:38.459Z,85.16
2022-11-15T19:34:06.372Z,85.29
2022-11-15T19:36:38.830Z,84.90
2022-11-15T19:39:09.872Z,85.21
2022-11-15T19:41:38.525Z,85.34
2022-11-15T19:44:06.166Z,84.42
2022-11-15T19:46:33.003Z,85.57
2022-11-15T19:48:59.834Z,85.04
2022-11-15T19:51:30.207Z,84.88
2022-11-15T19:54:06.273Z,85.23
2022-11-15T19:56:34.720Z,84.23
2022-11-15T19:59:02.536Z,84.65
2022-11-15T20:01:31.349Z,84.68
2022-11-15T20:03:59.566Z,84.66
2022-11-15T20:06:35.396Z,85.63
2022-11-15T20:09:02.727Z,85.24
2022-11-15T20:11:29.630Z,85.49
2022-11-15T20:14:00.423Z,85.13
2022-11-15T20:16:27.106Z,85.00
2022-11-15T20:18:54.028Z,84.72
2022-11-15T20:21:21.581Z,85.38
2022-11-15T20:23:50.552Z,85.06
2022-11-15T20:26:19.419Z,84.02
2022-11-15T20:28:46.261Z,85.11
2022-11-15T20:31:13.061Z,85.02
2022-11-15T20:33:40.435Z,84.07
2022-11-15T20:36:11.053Z,83.31
2022-11-15T20:38:38.619Z,83.22
2022-11-15T20:41:05.668Z,82.83
2022-11-15T20:43:32.527Z,83.36
2022-11-15T20:45:59.127Z,83.88
2022-11-15T20:48:26.074Z,83.67
2022-11-15T20:51:06.374Z,83.41
2022-11-15T20:53:33.912Z,83.47
2022-11-15T20:56:07.752Z,83.96
2022-11-15T20:58:36.815Z,83.20
2022-11-15T21:01:08.076Z,84.00
2022-11-15T21:03:40.873Z,83.75
2022-11-15T21:06:12.788Z,83.00
2022-11-15T21:09:02.496Z,83.59
2022-11-15T21:11:53.600Z,83.18
2022-11-15T21:14:23.573Z,83.37
2022-11-15T21:20:28.345Z,84.17
2022-11-15T21:22:57.609Z,83.70
2022-11-15T21:25:27.983Z,83.50
2022-11-15T21:30:52.572Z,82.99
2022-11-15T21:33:23.555Z,82.19
2022-11-15T21:35:51.584Z,82.29
2022-11-15T21:38:27.886Z,82.11
2022-11-15T21:40:56.777Z,82.40
2022-11-15T21:43:23.775Z,82.03
2022-11-15T21:51:44.251Z,82.38
2022-11-15T21:54:11.236Z,81.72
2022-11-15T21:56:43.663Z,81.40
2022-11-15T21:59:13.063Z,81.94
2022-11-15T22:01:58.378Z,82.05
2022-11-15T22:04:26.648Z,81.53
2022-11-15T22:06:55.993Z,82.28
2022-11-15T22:09:28.046Z,81.89
2022-11-15T22:11:57.723Z,81.94
2022-11-15T22:14:24.696Z,80.80
2022-11-15T22:22:25.252Z,80.08
2022-11-15T22:24:51.984Z,80.28
2022-11-15T22:27:18.557Z,78.93
2022-11-15T22:29:45.350Z,79.01
2022-11-15T22:32:11.949Z,79.21
2022-11-15T22:34:38.634Z,78.70
2022-11-15T22:37:19.896Z,78.33
2022-11-15T22:39:47.472Z,78.80
2022-11-15T22:42:15.610Z,78.36
2022-11-15T22:44:44.875Z,78.35
2022-11-15T22:47:11.634Z,78.28
2022-11-15T22:49:38.311Z,77.76
2022-11-15T22:52:05.161Z,78.86
2022-11-15T22:54:32.374Z,78.24
2022-11-15T22:56:59.217Z,78.65
2022-11-15T22:59:26.692Z,78.70
2022-11-15T23:01:57.411Z,77.53
2022-11-15T23:04:24.204Z,78.56
2022-11-15T23:06:50.892Z,78.83
2022-11-15T23:09:17.671Z,78.75
2022-11-15T23:12:03.081Z,78.20
2022-11-15T23:14:30.861Z,77.21
2022-11-15T23:16:57.849Z,77.39
2022-11-15T23:19:24.485Z,76.15
2022-11-15T23:22:09.643Z,77.33
2022-11-15T23:24:36.435Z,75.92
2022-11-15T23:27:07.202Z,76.16
2022-11-15T23:29:54.260Z,76.28
2022-11-15T23:32:39.294Z,75.40
2022-11-15T23:35:06.176Z,74.85
2022-11-15T23:37:33.086Z,73.90
2022-11-15T23:39:59.887Z,73.53
2022-11-15T23:42:26.553Z,73.89
2022-11-15T23:44:53.186Z,73.25
2022-11-15T23:47:20.340Z,72.96
2022-11-15T23:49:47.156Z,73.88
2022-11-15T23:52:15.405Z,73.43
2022-11-15T23:54:42.441Z,72.66
2022-11-15T23:57:11.870Z,73.14
2022-11-15T23:59:44.843Z,73.52
